createdAt,value
2023-01-01T00:02:01.275Z,1.3
2023-01-01T00:05:01.249Z,2.2
2023-01-01T00:08:06.119Z,1.45
2023-01-01T00:11:01.149Z,2.15
2023-01-01T00:14:01.933Z,1.2
2023-01-01T00:17:01.275Z,1.6
2023-01-01T00:20:01.220Z,1.6
2023-01-01T00:23:01.204Z,2.1
2023-01-01T00:26:01.093Z,1.4
2023-01-01T00:29:01.192Z,1.15
2023-01-01T00:32:01.364Z,2.5
2023-01-01T00:35:01.263Z,1.4
2023-01-01T00:38:01.085Z,1.5
2023-01-01T00:41:01.152Z,2.3
2023-01-01T00:44:01.144Z,1.8
2023-01-01T00:47:01.259Z,0.9
2023-01-01T00:50:01.205Z,2.1
2023-01-01T00:53:01.201Z,1.05
2023-01-01T00:56:01.210Z,1.75
2023-01-01T00:59:02.405Z,1.25
2023-01-01T01:02:01.535Z,1.25
2023-01-01T01:05:01.198Z,0.85
2023-01-01T01:08:01.199Z,1.5
2023-01-01T01:11:01.256Z,1.6
2023-01-01T01:14:01.232Z,0.9
2023-01-01T01:17:01.397Z,1
2023-01-01T01:20:01.255Z,1.1
2023-01-01T01:23:01.232Z,0.65
2023-01-01T01:26:01.150Z,0.9
2023-01-01T01:29:01.252Z,1.2
2023-01-01T01:32:01.313Z,0.9
2023-01-01T01:35:01.176Z,0.7
2023-01-01T01:38:01.275Z,2.1
2023-01-01T01:41:01.225Z,0.75
2023-01-01T01:44:01.164Z,0.15
2023-01-01T01:47:01.307Z,0.85
2023-01-01T01:50:01.204Z,1.4
2023-01-01T01:53:01.179Z,0.7
2023-01-01T01:56:01.316Z,1.25
2023-01-01T01:59:01.258Z,0.5
2023-01-01T02:02:01.639Z,1
2023-01-01T02:05:01.316Z,0.5
2023-01-01T02:08:01.312Z,1.2
2023-01-01T02:11:01.215Z,1.85
2023-01-01T02:14:01.476Z,0.7
2023-01-01T02:17:01.348Z,2.15
2023-01-01T02:20:01.956Z,2.2
2023-01-01T02:23:05.524Z,2
2023-01-01T02:26:01.286Z,1.65
2023-01-01T02:29:01.240Z,1.6
2023-01-01T02:32:01.263Z,1.25
2023-01-01T02:35:01.542Z,1.45
2023-01-01T02:38:01.366Z,1.1
2023-01-01T02:41:01.302Z,0.7
2023-01-01T02:47:01.379Z,0.5
2023-01-01T02:50:01.420Z,0.9
2023-01-01T02:53:01.373Z,1
2023-01-01T02:56:01.369Z,1.45
2023-01-01T02:59:01.303Z,1.55
2023-01-01T03:02:01.500Z,1.5
2023-01-01T03:05:01.330Z,1.2
2023-01-01T03:08:01.366Z,1.2
2023-01-01T03:11:03.015Z,0.85
2023-01-01T03:14:01.294Z,1
2023-01-01T03:17:01.354Z,0.8
2023-01-01T03:20:01.253Z,1.3
2023-01-01T03:23:01.381Z,1.9
2023-01-01T03:26:01.326Z,1.05
2023-01-01T03:29:01.322Z,1.35
2023-01-01T03:32:01.685Z,1.25
2023-01-01T03:35:01.345Z,1.35
2023-01-01T03:38:01.462Z,1.35
2023-01-01T03:41:01.461Z,1.75
2023-01-01T03:44:01.425Z,1.35
2023-01-01T03:47:01.541Z,1.05
2023-01-01T03:50:01.342Z,1.15
2023-01-01T03:53:01.393Z,1.4
2023-01-01T03:56:01.348Z,1.35
2023-01-01T03:59:01.383Z,1.15
2023-01-01T04:02:01.576Z,1.4
2023-01-01T04:05:01.263Z,1.3
2023-01-01T04:08:01.370Z,1.05
2023-01-01T04:11:01.428Z,1
2023-01-01T04:14:01.267Z,0.85
2023-01-01T04:17:01.394Z,0.9
2023-01-01T04:20:01.405Z,1.05
2023-01-01T04:23:01.389Z,1.2
2023-01-01T04:26:01.423Z,1.4
2023-01-01T04:29:01.499Z,1.25
2023-01-01T04:32:01.394Z,1
2023-01-01T04:35:01.357Z,0.95
2023-01-01T04:38:01.376Z,1.25
2023-01-01T04:41:01.405Z,1.35
2023-01-01T04:44:01.440Z,1.45
2023-01-01T04:47:01.424Z,1.25
2023-01-01T04:50:01.323Z,0.95
2023-01-01T04:53:01.432Z,0.6
2023-01-01T04:56:01.485Z,1
2023-01-01T04:59:01.451Z,0.95
2023-01-01T05:02:01.810Z,0.6
2023-01-01T05:05:01.389Z,0.45
2023-01-01T05:08:01.433Z,1.15
2023-01-01T05:11:01.361Z,0.65
2023-01-01T05:14:01.533Z,0.5
2023-01-01T05:17:01.325Z,0.65
2023-01-01T05:20:01.479Z,1.1
2023-01-01T05:23:01.415Z,1.1
2023-01-01T05:26:01.447Z,0.95
2023-01-01T05:29:01.503Z,1.45
2023-01-01T05:32:01.414Z,1.7
2023-01-01T05:35:01.490Z,1.95
2023-01-01T05:38:01.800Z,1.9
2023-01-01T05:41:01.524Z,1.25
2023-01-01T05:44:01.341Z,1
2023-01-01T05:47:01.538Z,1.4
2023-01-01T05:50:01.525Z,2
2023-01-01T05:53:01.430Z,1.9
2023-01-01T05:56:01.548Z,1.4
2023-01-01T05:59:01.521Z,1.45
2023-01-01T06:02:01.835Z,1.65
2023-01-01T06:05:01.482Z,1.75
2023-01-01T06:08:01.479Z,1.55
2023-01-01T06:11:01.461Z,1.9
2023-01-01T06:14:01.606Z,1.75
2023-01-01T06:17:01.718Z,1.75
2023-01-01T06:20:01.445Z,1.65
2023-01-01T06:23:01.415Z,1.3
2023-01-01T06:26:01.505Z,1.55
2023-01-01T06:29:01.501Z,1.7
2023-01-01T06:32:01.553Z,1.45
2023-01-01T06:35:01.616Z,1.7
2023-01-01T06:38:01.452Z,1.6
2023-01-01T06:41:01.561Z,1.45
2023-01-01T06:44:01.524Z,1.25
2023-01-01T06:47:01.598Z,1.5
2023-01-01T06:50:01.489Z,1.5
2023-01-01T06:53:01.603Z,1.05
2023-01-01T06:56:01.613Z,0.9
2023-01-01T06:59:01.569Z,2
2023-01-01T07:02:01.751Z,1.5
2023-01-01T07:05:01.509Z,1.3
2023-01-01T07:08:01.604Z,0.8
2023-01-01T07:11:01.576Z,1.15
2023-01-01T07:14:01.534Z,1.05
2023-01-01T07:17:01.523Z,1.15
2023-01-01T07:20:01.443Z,1.15
2023-01-01T07:23:01.564Z,1.25
2023-01-01T07:26:01.524Z,1.1
2023-01-01T07:29:08.133Z,1.35
2023-01-01T07:32:01.545Z,1.45
2023-01-01T07:35:01.645Z,1.9
2023-01-01T07:38:01.604Z,1.35
2023-01-01T07:41:01.657Z,1.55
2023-01-01T07:44:01.699Z,1.65
2023-01-01T07:47:01.541Z,0.95
2023-01-01T07:50:01.715Z,1.05
2023-01-01T07:53:01.817Z,1.85
2023-01-01T07:56:01.588Z,0.95
2023-01-01T07:59:01.566Z,1.7
2023-01-01T08:02:01.847Z,0.85
2023-01-01T08:05:01.624Z,1.8
2023-01-01T08:08:01.646Z,1.6
2023-01-01T08:11:05.000Z,2.35
2023-01-01T08:14:01.983Z,1.1
2023-01-01T08:17:01.637Z,1.1
2023-01-01T08:20:01.658Z,1.45
2023-01-01T08:23:07.523Z,1.35
2023-01-01T08:26:01.764Z,0.6
2023-01-01T08:29:01.532Z,1.8
2023-01-01T08:32:01.595Z,1.65
2023-01-01T08:35:01.644Z,1.15
2023-01-01T08:38:01.593Z,2
2023-01-01T08:41:01.639Z,1.4
2023-01-01T08:44:01.585Z,1
2023-01-01T08:47:01.725Z,1.4
2023-01-01T08:50:01.511Z,1
2023-01-01T08:53:01.682Z,0.95
2023-01-01T08:56:01.561Z,1.85
2023-01-01T08:59:05.506Z,1.25
2023-01-01T09:02:01.861Z,1.15
2023-01-01T09:05:01.573Z,1.1
2023-01-01T09:08:01.681Z,0.95
2023-01-01T09:11:01.636Z,1
2023-01-01T09:14:01.679Z,1.55
2023-01-01T09:17:01.706Z,1.9
2023-01-01T09:20:01.620Z,2.1
2023-01-01T09:23:06.562Z,0.75
2023-01-01T09:26:01.629Z,0.85
2023-01-01T09:29:01.714Z,0.65
2023-01-01T09:32:02.206Z,0.7
2023-01-01T09:35:01.725Z,1
2023-01-01T09:38:02.053Z,1.6
2023-01-01T09:41:01.743Z,0.9
2023-01-01T09:44:01.689Z,1.05
2023-01-01T09:47:01.782Z,0.25
2023-01-01T09:50:01.649Z,0.5
2023-01-01T09:53:01.848Z,0.7
2023-01-01T09:56:01.700Z,0.7
2023-01-01T09:59:01.637Z,1.1
2023-01-01T10:02:01.873Z,0.65
2023-01-01T10:05:01.753Z,0.7
2023-01-01T10:08:01.620Z,1.25
2023-01-01T10:11:01.651Z,1.5
2023-01-01T10:14:01.741Z,1.1
2023-01-01T10:17:01.746Z,1.25
2023-01-01T10:20:01.713Z,1.05
2023-01-01T10:23:01.685Z,1.1
2023-01-01T10:26:01.700Z,1.5
2023-01-01T10:29:01.862Z,1
2023-01-01T10:32:01.828Z,1.55
2023-01-01T10:35:01.688Z,1.4
2023-01-01T10:38:01.807Z,1
2023-01-01T10:41:01.710Z,1.35
2023-01-01T10:44:01.806Z,1.05
2023-01-01T10:47:01.679Z,1.2
2023-01-01T10:50:01.843Z,1.05
2023-01-01T10:53:01.739Z,1
2023-01-01T10:56:01.769Z,1
2023-01-01T10:59:01.657Z,1.6
2023-01-01T11:02:01.967Z,0.75
2023-01-01T11:05:10.787Z,0.45
2023-01-01T11:08:01.689Z,1.35
2023-01-01T11:11:01.812Z,1.3
2023-01-01T11:14:01.892Z,0.65
2023-01-01T11:17:01.839Z,0.9
2023-01-01T11:20:03.497Z,1.4
2023-01-01T11:23:01.764Z,2.1
2023-01-01T11:26:02.619Z,1.15
2023-01-01T11:29:01.829Z,0.8
2023-01-01T11:32:02.107Z,0.65
2023-01-01T11:35:01.827Z,0.55
2023-01-01T11:38:01.842Z,0.95
2023-01-01T11:41:01.804Z,0.35
2023-01-01T11:44:02.330Z,1.15
2023-01-01T11:47:01.952Z,0.7
2023-01-01T11:50:01.776Z,0.7
2023-01-01T11:53:01.909Z,0.45
2023-01-01T11:56:01.741Z,0.75
2023-01-01T11:59:01.852Z,0.75
2023-01-01T12:02:02.024Z,0.3
2023-01-01T12:05:01.957Z,0.85
2023-01-01T12:08:01.849Z,0.6
2023-01-01T12:11:01.804Z,0.85
2023-01-01T12:14:01.794Z,0.75
2023-01-01T12:17:01.807Z,0.5
2023-01-01T12:20:01.851Z,0.4
2023-01-01T12:23:01.843Z,0.85
2023-01-01T12:26:01.900Z,0.95
2023-01-01T12:29:01.779Z,0.6
2023-01-01T12:32:02.184Z,0.65
2023-01-01T12:35:01.889Z,1.3
2023-01-01T12:38:01.813Z,1.65
2023-01-01T12:41:01.741Z,1.7
2023-01-01T12:44:02.053Z,1.15
2023-01-01T12:47:01.916Z,0.8
2023-01-01T12:50:02.175Z,0.4
2023-01-01T12:53:01.875Z,0.3
2023-01-01T12:56:01.832Z,1.5
2023-01-01T12:59:01.877Z,1.3
2023-01-01T13:02:02.285Z,1.3
2023-01-01T13:05:01.890Z,0.8
2023-01-01T13:08:01.941Z,0.55
2023-01-01T13:11:02.544Z,0.4
2023-01-01T13:14:02.004Z,0.75
2023-01-01T13:17:01.911Z,0.6
2023-01-01T13:20:01.822Z,0.25
2023-01-01T13:23:01.929Z,1.2
2023-01-01T13:26:01.882Z,0.35
2023-01-01T13:29:02.040Z,0.25
2023-01-01T13:32:01.936Z,0.1
2023-01-01T13:35:01.853Z,0.35
2023-01-01T13:38:01.964Z,0.3
2023-01-01T13:41:01.881Z,0.4
2023-01-01T13:44:02.043Z,0.65
2023-01-01T13:47:01.974Z,0.75
2023-01-01T13:50:01.908Z,0.75
2023-01-01T13:53:01.946Z,0.75
2023-01-01T13:56:01.921Z,1.9
2023-01-01T13:59:01.961Z,0.7
2023-01-01T14:02:02.903Z,0.95
2023-01-01T14:05:01.862Z,1
2023-01-01T14:08:02.068Z,0.7
2023-01-01T14:11:02.959Z,0.35
2023-01-01T14:14:02.080Z,0.65
2023-01-01T14:17:02.522Z,0.3
2023-01-01T14:20:02.836Z,0.4
2023-01-01T14:23:01.815Z,0.9
2023-01-01T14:26:01.910Z,0.55
2023-01-01T14:29:01.867Z,0.65
2023-01-01T14:32:02.151Z,0.4
2023-01-01T14:35:02.868Z,1
2023-01-01T14:38:01.967Z,0.45
2023-01-01T14:41:01.841Z,0.6
2023-01-01T14:44:01.946Z,0.2
2023-01-01T14:47:01.895Z,0.2
2023-01-01T14:53:02.220Z,0.55
2023-01-01T14:56:01.997Z,0.8
2023-01-01T14:59:05.473Z,1.25
2023-01-01T15:02:02.466Z,0.8
2023-01-01T15:05:02.047Z,0.65
2023-01-01T15:08:01.864Z,0.95
2023-01-01T15:11:01.907Z,0.7
2023-01-01T15:14:02.228Z,0.55
2023-01-01T15:17:02.210Z,0.6
2023-01-01T15:20:02.052Z,0.85
2023-01-01T15:23:10.251Z,1.2
2023-01-01T15:26:01.968Z,1.25
2023-01-01T15:29:01.927Z,0.9
2023-01-01T15:32:02.196Z,1.2
2023-01-01T15:35:02.060Z,0.65
2023-01-01T15:38:02.273Z,1.1
2023-01-01T15:41:01.970Z,0.85
2023-01-01T15:44:02.095Z,1
2023-01-01T15:47:01.930Z,1.3
2023-01-01T15:50:02.071Z,0.75
2023-01-01T15:53:01.938Z,1.25
2023-01-01T15:56:01.998Z,1.2
2023-01-01T15:59:09.348Z,2.25
2023-01-01T16:02:02.521Z,1.2
2023-01-01T16:05:02.044Z,1.65
2023-01-01T16:08:02.103Z,1.7
2023-01-01T16:11:02.075Z,1.55
2023-01-01T16:14:01.963Z,1.45
2023-01-01T16:17:02.377Z,1.6
2023-01-01T16:20:02.523Z,1.1
2023-01-01T16:23:01.957Z,1.3
2023-01-01T16:26:02.081Z,1.1
2023-01-01T16:29:02.137Z,1
2023-01-01T16:32:02.667Z,1.4
2023-01-01T16:35:11.734Z,1.6
2023-01-01T16:38:02.139Z,1.5
2023-01-01T16:41:02.047Z,2.45
2023-01-01T16:44:02.084Z,1.75
2023-01-01T16:47:02.089Z,1.2
2023-01-01T16:50:02.454Z,1.8
2023-01-01T16:53:02.059Z,1.65
2023-01-01T16:56:02.085Z,1.5
2023-01-01T16:59:04.576Z,2.1
2023-01-01T17:02:02.290Z,1.25
2023-01-01T17:05:02.236Z,1.25
2023-01-01T17:08:02.142Z,1.9
2023-01-01T17:11:09.916Z,1.75
2023-01-01T17:14:02.145Z,2.25
2023-01-01T17:17:02.056Z,2.2
2023-01-01T17:20:02.306Z,2.25
2023-01-01T17:23:02.547Z,1.7
2023-01-01T17:26:02.173Z,2.5
2023-01-01T17:29:02.293Z,1.75
2023-01-01T17:32:02.265Z,1.35
2023-01-01T17:35:02.197Z,1.7
2023-01-01T17:38:02.092Z,1.65
2023-01-01T17:41:02.699Z,2.75
2023-01-01T17:44:02.172Z,1.85
2023-01-01T17:47:02.168Z,1.75
2023-01-01T17:50:02.157Z,1.2
2023-01-01T17:53:02.216Z,1.65
2023-01-01T17:56:02.248Z,2
2023-01-01T17:59:02.167Z,1.55
2023-01-01T18:02:02.480Z,1.6
2023-01-01T18:05:02.144Z,1.7
2023-01-01T18:08:02.450Z,1.75
2023-01-01T18:11:02.172Z,1.65
2023-01-01T18:14:02.222Z,1.1
2023-01-01T18:17:02.173Z,1.55
2023-01-01T18:20:02.159Z,1.9
2023-01-01T18:23:02.232Z,2.15
2023-01-01T18:26:02.187Z,1.35
2023-01-01T18:29:02.185Z,1.3
2023-01-01T18:32:02.234Z,1
2023-01-01T18:35:02.074Z,1.6
2023-01-01T18:38:02.195Z,2
2023-01-01T18:41:02.292Z,1.2
2023-01-01T18:44:02.219Z,1.75
2023-01-01T18:47:02.302Z,1.65
2023-01-01T18:50:02.108Z,1.75
2023-01-01T18:53:02.305Z,1.45
2023-01-01T18:56:02.202Z,1.5
2023-01-01T18:59:02.241Z,1.85
2023-01-01T19:02:02.338Z,1.3
2023-01-01T19:05:02.502Z,1.7
2023-01-01T19:08:02.233Z,1.5
2023-01-01T19:11:02.617Z,1.6
2023-01-01T19:14:02.687Z,1.95
2023-01-01T19:17:02.246Z,1.9
2023-01-01T19:20:02.168Z,1.65
2023-01-01T19:23:02.363Z,2.05
2023-01-01T19:26:02.335Z,1.9
2023-01-01T19:29:02.212Z,2.95
2023-01-01T19:32:02.230Z,1.7
2023-01-01T19:35:02.247Z,2.5
2023-01-01T19:38:02.338Z,2.6
2023-01-01T19:41:03.360Z,2.05
2023-01-01T19:44:02.345Z,2.15
2023-01-01T19:47:02.359Z,1.8
2023-01-01T19:50:02.242Z,2.25
2023-01-01T19:53:02.389Z,1.7
2023-01-01T19:56:02.314Z,2
2023-01-01T19:59:02.261Z,1.35
2023-01-01T20:02:43.776Z,2.55
2023-01-01T20:05:02.346Z,2.05
2023-01-01T20:08:02.430Z,2.4
2023-01-01T20:11:02.371Z,2.3
2023-01-01T20:14:02.370Z,2.35
2023-01-01T20:17:02.353Z,2.55
2023-01-01T20:20:02.308Z,2.35
2023-01-01T20:23:02.186Z,2.7
2023-01-01T20:26:02.377Z,2.5
2023-01-01T20:29:02.399Z,2.25
2023-01-01T20:32:02.496Z,3.1
2023-01-01T20:35:02.294Z,2.3
2023-01-01T20:38:02.380Z,1.8
2023-01-01T20:41:02.592Z,1.95
2023-01-01T20:44:02.854Z,2
2023-01-01T20:47:02.326Z,2.05
2023-01-01T20:50:02.381Z,2.45
2023-01-01T20:53:02.595Z,2.3
2023-01-01T20:56:02.301Z,1.65
2023-01-01T20:59:24.571Z,1.9
2023-01-01T21:02:02.948Z,2.7
2023-01-01T21:05:02.305Z,2
2023-01-01T21:08:02.299Z,2.35
2023-01-01T21:11:02.381Z,1.7
2023-01-01T21:14:02.337Z,2.15
2023-01-01T21:17:02.459Z,1.9
2023-01-01T21:20:02.363Z,2
2023-01-01T21:23:02.355Z,1.75
2023-01-01T21:26:02.514Z,1.4
2023-01-01T21:29:02.332Z,1.65
2023-01-01T21:32:10.555Z,2.15
2023-01-01T21:35:02.422Z,2.35
2023-01-01T21:38:02.321Z,1.55
2023-01-01T21:41:02.372Z,1.4
2023-01-01T21:44:02.652Z,1.15
2023-01-01T21:47:03.165Z,1.7
2023-01-01T21:50:02.269Z,2.7
2023-01-01T21:53:02.347Z,1.35
2023-01-01T21:56:02.301Z,1.2
2023-01-01T21:59:02.325Z,0.95
2023-01-01T22:02:03.277Z,1.55
2023-01-01T22:05:02.382Z,1
2023-01-01T22:08:02.351Z,0.85
2023-01-01T22:11:02.438Z,1.15
2023-01-01T22:14:02.398Z,1.25
2023-01-01T22:17:02.382Z,1.2
2023-01-01T22:20:03.341Z,0.75
2023-01-01T22:23:06.448Z,2.3
2023-01-01T22:26:02.495Z,1.3
2023-01-01T22:29:02.513Z,1.6
2023-01-01T22:32:02.393Z,0.95
2023-01-01T22:35:02.341Z,2.05
2023-01-01T22:38:02.481Z,1.85
2023-01-01T22:41:02.548Z,1.25
2023-01-01T22:44:02.340Z,1.45
2023-01-01T22:47:02.425Z,1.25
2023-01-01T22:50:02.432Z,1.25
2023-01-01T22:53:02.435Z,1.1
2023-01-01T22:56:02.369Z,1.1
2023-01-01T22:59:02.476Z,1.05
2023-01-01T23:02:02.508Z,1.1
2023-01-01T23:05:02.435Z,1.25
2023-01-01T23:08:02.489Z,1.95
2023-01-01T23:11:02.423Z,1.4
2023-01-01T23:14:02.446Z,1.35
2023-01-01T23:17:03.277Z,2
2023-01-01T23:20:02.430Z,1.1
2023-01-01T23:23:02.336Z,1.3
2023-01-01T23:26:02.341Z,1.05
2023-01-01T23:29:02.544Z,1.3
2023-01-01T23:32:02.645Z,1.6
2023-01-01T23:35:02.726Z,1.6
2023-01-01T23:38:02.485Z,1.6
2023-01-01T23:41:02.451Z,1.75
2023-01-01T23:44:02.428Z,1.25
2023-01-01T23:47:02.853Z,1.45
2023-01-01T23:50:02.507Z,1.1
2023-01-01T23:53:02.560Z,1.4
2023-01-01T23:56:02.512Z,1.5
2023-01-01T23:59:02.637Z,1.2
